Time;durP1;ratioP1;P1;durP2;ratioP2;P2;SDS_P1;SDS_P2;PMS_P1;PMS_P2;Temp;Humidity;BMP_temperature;BMP_pressure;BME280_temperature;BME280_humidity;BME280_pressure;Samples;Min_cycle;Max_cycle;Signal;HPM_P1;HPM_P2
2024/01/21 00:04:18;;;;;;;20.65;10.27;;;;;;;6.32;69.38;101848.19;10306255;28;96738;-79
2024/01/21 00:09:22;;;;;;;22.42;10.70;;;;;;;6.30;69.19;101855.13;10297363;28;97095;-79
2024/01/21 00:14:27;;;;;;;24.63;12.05;;;;;;;6.27;69.03;101856.88;10306751;28;96756;-79
2024/01/21 00:19:30;;;;;;;22.83;10.75;;;;;;;6.19;68.93;101845.53;10333597;28;96771;-79
2024/01/21 00:24:34;;;;;;;22.33;11.27;;;;;;;6.26;69.28;101827.28;10305485;28;96816;-79
2024/01/21 00:29:39;;;;;;;18.83;10.77;;;;;;;6.19;69.04;101815.06;10305330;28;97397;-79
2024/01/21 00:34:43;;;;;;;21.85;10.45;;;;;;;6.25;68.88;101827.25;10305633;28;96880;-79
2024/01/21 00:39:46;;;;;;;21.20;10.05;;;;;;;6.15;68.46;101831.56;10321396;28;96666;-79
2024/01/21 00:44:51;;;;;;;20.80;9.43;;;;;;;6.13;69.31;101845.50;10324320;28;99498;-79
2024/01/21 00:49:55;;;;;;;20.23;10.05;;;;;;;6.14;69.04;101866.44;10303335;28;97435;-79
2024/01/21 00:54:59;;;;;;;23.80;10.13;;;;;;;6.03;68.92;101878.56;10319978;28;96724;-79
2024/01/21 01:00:05;;;;;;;22.67;10.40;;;;;;;5.98;70.06;101877.69;10306551;28;98786;-79
2024/01/21 01:05:09;;;;;;;24.75;10.45;;;;;;;6.12;69.76;101882.97;10307662;28;96771;-79
2024/01/21 01:10:12;;;;;;;22.08;10.38;;;;;;;6.08;69.30;101897.75;10338236;28;97048;-79
2024/01/21 01:15:18;;;;;;;19.35;9.57;;;;;;;5.88;70.35;101912.47;10335242;28;96733;-79
2024/01/21 01:20:22;;;;;;;22.65;9.32;;;;;;;5.87;70.73;101917.66;10331799;28;96730;-79
2024/01/21 01:25:27;;;;;;;23.70;9.70;;;;;;;5.94;70.16;101929.88;10326500;28;96788;-79
2024/01/21 01:30:32;;;;;;;18.43;9.93;;;;;;;5.92;70.23;101926.41;10314369;28;97071;-79
2024/01/21 01:35:35;;;;;;;19.55;10.85;;;;;;;5.70;73.70;101907.09;10323591;28;97480;-79
2024/01/21 01:40:39;;;;;;;17.02;9.32;;;;;;;5.72;71.76;101909.72;10308711;28;98820;-79
2024/01/21 01:45:44;;;;;;;19.25;9.73;;;;;;;5.74;70.51;101905.41;10302903;28;96961;-79
2024/01/21 01:50:48;;;;;;;20.33;9.30;;;;;;;5.76;70.55;101924.56;10309106;28;96884;-79
2024/01/21 01:55:52;;;;;;;21.20;9.88;;;;;;;5.73;70.71;101916.72;10304736;28;96635;-79
2024/01/21 02:00:57;;;;;;;19.42;9.27;;;;;;;5.72;71.03;101930.63;10298196;28;98794;-79
2024/01/21 02:06:01;;;;;;;20.60;9.95;;;;;;;5.71;70.31;101926.28;10298383;28;96675;-78
2024/01/21 02:11:05;;;;;;;17.55;9.50;;;;;;;5.43;74.40;101943.47;10306487;28;96951;-79
2024/01/21 02:16:11;;;;;;;19.42;9.43;;;;;;;5.60;72.41;101958.41;10297535;28;97321;-79
2024/01/21 02:21:15;;;;;;;16.35;8.32;;;;;;;5.69;71.35;101953.22;10307970;28;97122;-79
2024/01/21 02:26:21;;;;;;;21.42;9.43;;;;;;;5.72;70.56;101960.22;10307536;28;98796;-80
2024/01/21 02:31:24;;;;;;;18.48;8.98;;;;;;;5.66;71.80;101987.16;10301113;28;96959;-79
2024/01/21 02:36:27;;;;;;;21.17;9.65;;;;;;;5.77;71.42;101988.97;10298109;28;96670;-79
2024/01/21 02:41:33;;;;;;;18.13;9.02;;;;;;;5.72;70.82;101999.41;10300884;28;96743;-80
2024/01/21 02:46:36;;;;;;;18.70;9.13;;;;;;;5.77;71.56;102012.50;10304721;28;96869;-79
2024/01/21 02:51:40;;;;;;;15.48;9.05;;;;;;;5.56;72.96;102006.25;10298350;28;97279;-79
2024/01/21 02:56:45;;;;;;;21.38;9.68;;;;;;;5.44;75.41;102006.13;10297131;28;96827;-79
2024/01/21 03:01:48;;;;;;;24.15;10.25;;;;;;;5.36;74.62;102009.53;10303055;28;98329;-79
2024/01/21 03:06:52;;;;;;;17.30;9.35;;;;;;;5.17;77.05;102011.06;10301934;28;96881;-78
2024/01/21 03:11:57;;;;;;;15.48;9.00;;;;;;;5.15;76.46;102027.59;10314766;28;96732;-79
2024/01/21 03:17:00;;;;;;;16.70;8.73;;;;;;;5.32;74.55;102028.63;10301697;22;97134;-79
2024/01/21 03:22:04;;;;;;;15.05;7.47;;;;;;;5.39;73.46;102031.31;10279041;28;96717;-79
2024/01/21 03:27:09;;;;;;;17.42;9.05;;;;;;;5.57;72.15;102039.31;10270193;28;96786;-79
2024/01/21 03:32:13;;;;;;;16.58;8.45;;;;;;;5.73;72.52;102022.03;10283745;28;96701;-79
2024/01/21 03:37:18;;;;;;;19.88;8.43;;;;;;;5.73;71.60;102027.25;10267333;28;97041;-79
2024/01/21 03:42:23;;;;;;;21.63;10.40;;;;;;;5.83;71.42;102029.06;10295559;28;96557;-80
2024/01/21 03:47:26;;;;;;;20.98;9.00;;;;;;;5.74;72.18;102026.41;10262867;28;96771;-79
2024/01/21 03:52:30;;;;;;;14.90;8.32;;;;;;;5.77;71.26;102021.22;10251394;28;96721;-79
2024/01/21 03:57:35;;;;;;;16.65;7.75;;;;;;;5.82;71.17;102018.63;10285407;28;96810;-79
2024/01/21 04:02:39;;;;;;;16.17;8.02;;;;;;;5.83;70.97;101997.72;10265668;28;97214;-79
2024/01/21 04:07:43;;;;;;;15.30;8.05;;;;;;;5.83;70.85;101995.13;10265949;28;96655;-79
2024/01/21 04:12:48;;;;;;;17.70;8.63;;;;;;;5.82;71.47;101998.59;10264378;28;98312;-79
2024/01/21 04:17:52;;;;;;;17.48;8.55;;;;;;;5.83;71.08;102009.94;10267418;28;96729;-79
2024/01/21 04:22:56;;;;;;;17.08;7.82;;;;;;;5.87;70.85;102006.47;10274556;28;98500;-79
2024/01/21 04:28:01;;;;;;;17.33;8.48;;;;;;;5.85;70.55;101982.94;10291012;28;96801;-79
2024/01/21 04:33:04;;;;;;;16.98;8.10;;;;;;;5.97;70.15;101988.25;10268261;28;96803;-79
2024/01/21 04:38:08;;;;;;;16.83;8.35;;;;;;;5.88;70.32;101982.09;10282409;28;96848;-79
2024/01/21 04:43:13;;;;;;;14.35;7.30;;;;;;;5.90;70.85;101986.47;10262140;28;98444;-79
2024/01/21 04:48:16;;;;;;;16.02;8.07;;;;;;;5.83;70.00;101986.44;10262333;28;96951;-79
2024/01/21 04:53:20;;;;;;;14.30;7.22;;;;;;;5.85;70.00;101992.53;10257744;28;96878;-79
2024/01/21 04:58:25;;;;;;;14.57;8.05;;;;;;;5.73;70.91;101998.53;10259229;28;96676;-79
2024/01/21 05:03:29;;;;;;;13.05;6.45;;;;;;;5.76;70.19;101993.34;10268607;28;96850;-79
2024/01/21 05:08:32;;;;;;;14.75;7.50;;;;;;;5.75;70.26;102001.16;10283608;28;97160;-78
2024/01/21 05:13:37;;;;;;;14.27;7.40;;;;;;;5.81;69.81;101985.53;10267404;28;97036;-78
2024/01/21 05:18:53;;;;;;;12.85;6.88;;;;;;;5.79;70.57;101987.25;10262514;28;98415;-79
2024/01/21 05:23:57;;;;;;;12.80;7.20;;;;;;;5.85;70.63;101996.00;10261687;28;96782;-79
2024/01/21 05:29:02;;;;;;;13.48;6.95;;;;;;;5.82;71.33;101995.09;10247131;28;96828;-79
2024/01/21 05:34:06;;;;;;;14.02;7.22;;;;;;;5.88;70.43;101987.34;10236926;28;97298;-79
2024/01/21 05:39:10;;;;;;;14.30;7.30;;;;;;;5.90;71.69;101994.31;10259276;28;96779;-79
2024/01/21 05:44:14;;;;;;;15.05;8.00;;;;;;;5.83;71.47;102002.97;10296394;28;97752;-79
2024/01/21 05:49:18;;;;;;;13.35;7.00;;;;;;;5.85;70.51;102027.34;10264890;28;97442;-79
2024/01/21 05:54:22;;;;;;;13.05;6.75;;;;;;;5.97;70.29;102030.06;10282802;28;97062;-79
2024/01/21 05:59:27;;;;;;;12.20;6.47;;;;;;;6.03;69.47;102044.91;10277889;28;96830;-79
2024/01/21 06:04:30;;;;;;;12.52;6.22;;;;;;;6.18;69.11;102051.13;10262742;28;96757;-79
2024/01/21 06:09:34;;;;;;;12.60;5.65;;;;;;;6.30;68.40;102053.81;10263492;28;97531;-79
2024/01/21 06:14:39;;;;;;;15.52;6.47;;;;;;;6.41;68.41;102043.44;10272388;28;96797;-79
2024/01/21 06:19:42;;;;;;;13.38;6.32;;;;;;;6.36;69.10;102048.63;10267478;28;96731;-79
2024/01/21 06:24:46;;;;;;;13.95;6.13;;;;;;;6.40;69.43;102046.91;10262135;28;96721;-79
2024/01/21 06:29:51;;;;;;;11.23;6.10;;;;;;;6.23;68.55;102056.41;10262443;28;98474;-79
2024/01/21 06:34:55;;;;;;;11.73;6.70;;;;;;;6.19;68.99;102054.63;10271910;28;96747;-78
2024/01/21 06:39:59;;;;;;;15.02;7.05;;;;;;;6.13;69.51;102060.66;10271491;28;96809;-78
2024/01/21 06:45:12;;;;;;;13.30;6.72;;;;;;;6.17;69.41;102072.91;10244236;28;98971;-78
2024/01/21 06:50:16;;;;;;;11.88;5.82;;;;;;;6.09;69.93;102069.34;10272128;28;97014;-79
2024/01/21 06:55:19;;;;;;;10.77;5.85;;;;;;;6.01;69.55;102065.81;10276928;28;96694;-78
2024/01/21 07:00:24;;;;;;;12.15;5.60;;;;;;;6.00;69.70;102077.13;10256786;28;96703;-79
2024/01/21 07:05:28;;;;;;;12.55;6.75;;;;;;;6.02;70.28;102059.72;10280751;28;96883;-76
2024/01/21 07:10:32;;;;;;;10.02;5.93;;;;;;;6.10;69.49;102055.44;10274064;28;96792;-75
2024/01/21 07:15:36;;;;;;;12.05;6.30;;;;;;;6.07;70.03;102071.09;10268670;28;96753;-76
2024/01/21 07:20:40;;;;;;;;;;;;;;;5.96;71.25;102066.63;10265577;28;98465;-76
2024/01/21 07:25:44;;;;;;;10.88;6.00;;;;;;;5.91;70.37;102066.59;10269566;28;98811;-76
2024/01/21 07:30:49;;;;;;;9.88;5.22;;;;;;;5.90;70.45;102062.22;10252653;28;96626;-76
2024/01/21 07:35:52;;;;;;;12.18;6.40;;;;;;;5.95;69.90;102065.78;10254500;28;96805;-77
2024/01/21 07:40:56;;;;;;;12.63;6.15;;;;;;;5.95;69.74;102068.38;10277551;28;97458;-76
2024/01/21 07:46:01;;;;;;;8.85;5.18;;;;;;;5.99;69.36;102088.44;10272493;28;98106;-77
2024/01/21 07:51:05;;;;;;;11.82;5.95;;;;;;;6.02;69.83;102085.84;10250663;28;96681;-77
2024/01/21 07:56:08;;;;;;;11.60;5.38;;;;;;;6.13;68.73;102099.88;10260377;28;98747;-76
2024/01/21 08:01:14;;;;;;;11.55;5.45;;;;;;;6.16;69.12;102102.50;10261943;28;96746;-81
2024/01/21 08:06:20;;;;;;;;;;;;;;;6.15;70.06;102126.91;10269143;28;97741;-81
2024/01/21 08:11:23;;;;;;;;;;;;;;;6.16;69.13;102127.78;10267847;28;97256;-83
2024/01/21 08:16:28;;;;;;;8.52;4.72;;;;;;;6.15;69.02;102126.91;10256820;28;98892;-81
2024/01/21 08:21:32;;;;;;;9.75;5.15;;;;;;;6.21;68.98;102126.09;10258741;28;96830;-82
2024/01/21 08:26:35;;;;;;;10.52;5.38;;;;;;;6.09;69.44;102139.91;10265611;28;97171;-80
2024/01/21 08:31:45;;;;;;;8.65;5.38;;;;;;;6.03;69.49;102142.47;10265141;28;97234;-77
2024/01/21 08:36:49;;;;;;;8.45;5.35;;;;;;;6.07;69.53;102146.88;10262689;28;96766;-80
2024/01/21 08:41:53;;;;;;;10.40;5.22;;;;;;;6.16;69.20;102140.84;10264465;28;98543;-81
2024/01/21 08:47:00;;;;;;;7.93;4.45;;;;;;;6.17;69.01;102156.53;10261263;28;97135;-81
2024/01/21 08:52:04;;;;;;;10.75;4.45;;;;;;;6.21;69.16;102163.53;10266041;28;96888;-81
2024/01/21 08:57:07;;;;;;;10.40;4.78;;;;;;;6.24;68.80;102173.16;10273990;28;98611;-84
2024/01/21 09:02:12;;;;;;;8.65;5.15;;;;;;;6.31;69.12;102183.69;10265893;28;96760;-83
2024/01/21 09:07:18;;;;;;;10.15;5.35;;;;;;;6.37;69.21;102193.28;10280590;28;97227;-86
2024/01/21 09:12:22;;;;;;;7.63;4.95;;;;;;;6.41;69.17;102200.31;10263243;28;96860;-85
2024/01/21 09:17:35;;;;;;;9.23;5.13;;;;;;;6.55;69.03;102212.63;10287466;28;98427;-87
2024/01/21 09:22:40;;;;;;;8.95;4.80;;;;;;;6.62;68.24;102231.88;10291876;28;96837;-85
2024/01/21 09:27:45;;;;;;;8.75;4.75;;;;;;;6.82;68.77;102227.66;10293655;28;98576;-85
2024/01/21 09:33:05;;;;;;;9.17;5.03;;;;;;;6.96;68.24;102246.13;10261963;28;96956;-84
2024/01/21 09:38:10;;;;;;;9.82;5.05;;;;;;;7.07;67.99;102270.59;10283138;28;96723;-81
2024/01/21 09:43:16;;;;;;;8.77;4.82;;;;;;;7.02;67.71;102291.53;10252553;28;97356;-85
2024/01/21 09:48:25;;;;;;;8.68;4.80;;;;;;;7.13;67.13;102307.31;10225465;28;97661;-87
2024/01/21 09:53:30;;;;;;;8.50;4.82;;;;;;;7.13;66.55;102315.16;10268602;28;96861;-86
2024/01/21 09:58:52;;;;;;;8.48;4.90;;;;;;;7.20;65.78;102320.44;10273778;28;98545;-88
2024/01/21 10:04:00;;;;;;;10.35;4.97;;;;;;;7.47;66.04;102323.25;10266862;28;96743;-82
2024/01/21 10:09:14;;;;;;;9.20;5.20;;;;;;;7.50;66.70;102333.72;10274559;28;96829;-78
2024/01/21 10:14:18;;;;;;;11.63;5.50;;;;;;;7.53;65.48;102328.50;10257092;28;96686;-82
2024/01/21 10:19:27;;;;;;;7.65;4.43;;;;;;;7.70;65.23;102329.47;10291201;28;96744;-83
2024/01/21 10:24:32;;;;;;;11.07;5.68;;;;;;;7.61;64.49;102341.66;10220922;28;96718;-83
2024/01/21 10:29:41;;;;;;;8.43;4.90;;;;;;;7.78;64.70;102334.75;10227513;28;97949;-83
2024/01/21 10:34:50;;;;;;;11.40;5.70;;;;;;;7.85;64.25;102329.56;10255502;28;96636;-83
2024/01/21 10:39:56;;;;;;;9.88;4.80;;;;;;;7.85;63.23;102334.81;10236215;28;96826;-84
2024/01/21 10:45:04;;;;;;;10.63;6.25;;;;;;;8.02;62.83;102340.09;10217971;28;96863;-83
2024/01/21 10:50:17;;;;;;;9.00;5.00;;;;;;;8.15;62.93;102355.00;10217824;28;96756;-84
2024/01/21 10:55:22;;;;;;;10.68;5.18;;;;;;;8.09;62.91;102346.25;10254463;28;96762;-82
2024/01/21 11:00:27;;;;;;;11.48;6.28;;;;;;;8.24;62.38;102344.53;10268976;28;96779;-82
2024/01/21 11:05:33;;;;;;;;;;;;;;;8.60;61.25;102339.38;10261168;28;98386;-82
2024/01/21 11:10:39;;;;;;;8.50;4.60;;;;;;;8.79;60.71;102330.66;10260758;28;96721;-83
2024/01/21 11:15:49;;;;;;;9.55;4.93;;;;;;;8.86;60.81;102334.19;10270899;28;97755;-84
2024/01/21 11:20:59;;;;;;;9.63;5.03;;;;;;;8.93;60.67;102315.78;10262714;28;96885;-83
2024/01/21 11:26:22;;;;;;;9.02;5.32;;;;;;;9.10;60.16;102327.16;10275159;28;96847;-83
2024/01/21 11:31:26;;;;;;;8.82;4.97;;;;;;;9.22;58.85;102307.03;10254386;28;96749;-82
2024/01/21 11:36:33;;;;;;;9.27;4.50;;;;;;;9.45;57.97;102310.53;10265890;28;96797;-79
2024/01/21 11:41:49;;;;;;;11.77;6.40;;;;;;;9.66;58.00;102300.81;10262875;28;96997;-82
2024/01/21 11:46:57;;;;;;;9.45;4.93;;;;;;;9.88;56.68;102284.06;10248618;28;98544;-81
2024/01/21 11:52:05;;;;;;;11.85;5.40;;;;;;;9.88;56.72;102277.94;10257230;28;97028;-83
2024/01/21 11:57:10;;;;;;;10.77;4.45;;;;;;;9.91;56.94;102263.03;10263191;28;96765;-83
2024/01/21 12:02:15;;;;;;;7.90;4.20;;;;;;;9.89;56.26;102245.50;10254041;28;97339;-82
2024/01/21 12:07:27;;;;;;;7.85;4.07;;;;;;;10.07;56.11;102240.16;10253644;28;98750;-81
2024/01/21 12:12:32;;;;;;;9.77;3.95;;;;;;;10.28;56.02;102216.34;10275846;28;98493;-82
2024/01/21 12:17:37;;;;;;;8.73;4.30;;;;;;;10.34;55.95;102202.25;10258526;28;98960;-80
2024/01/21 12:22:45;;;;;;;10.93;5.20;;;;;;;10.45;55.76;102185.50;10269873;28;97391;-81
2024/01/21 12:27:58;;;;;;;6.38;3.75;;;;;;;10.19;55.30;102174.31;10278645;28;96890;-82
2024/01/21 12:33:01;;;;;;;6.95;3.72;;;;;;;10.24;55.83;102177.78;10262365;28;96792;-83
2024/01/21 12:38:07;;;;;;;5.78;3.25;;;;;;;10.19;54.42;102174.31;10263186;28;98908;-82
2024/01/21 12:43:10;;;;;;;;;;;;;;;10.33;52.92;102159.28;10273641;28;98395;-85
2024/01/21 12:48:16;;;;;;;39.45;20.42;;;;;;;10.70;52.44;102146.63;10258000;28;98333;-82
2024/01/21 12:53:22;;;;;;;12.80;6.88;;;;;;;10.92;52.57;102135.88;10252525;28;96840;-82
2024/01/21 12:58:26;;;;;;;9.40;4.60;;;;;;;11.32;51.45;102125.75;10259099;28;97837;-84
2024/01/21 13:03:33;;;;;;;8.38;4.63;;;;;;;11.58;51.43;102128.06;10260184;28;96801;-81
2024/01/21 13:08:42;;;;;;;11.55;5.93;;;;;;;11.62;50.35;102113.91;10261645;28;98627;-83
2024/01/21 13:13:48;;;;;;;8.65;4.05;;;;;;;11.66;51.17;102113.88;10260340;28;97032;-83
2024/01/21 13:18:54;;;;;;;9.73;4.40;;;;;;;11.86;51.60;102108.28;10268696;28;99050;-83
2024/01/21 13:24:09;;;;;;;6.72;3.80;;;;;;;11.86;50.41;102105.63;10261934;28;98603;-85
2024/01/21 13:34:34;;;;;;;7.07;3.67;;;;;;;12.03;49.90;102085.16;10273226;28;96771;-81
2024/01/21 13:39:40;;;;;;;8.07;3.63;;;;;;;11.78;50.07;102082.03;10276364;28;96956;-80
2024/01/21 13:44:44;;;;;;;8.48;4.70;;;;;;;12.36;48.47;102081.94;10280817;28;97063;-77
2024/01/21 13:49:47;;;;;;;13.43;6.95;;;;;;;12.80;47.91;102076.72;10260219;28;97062;-80
2024/01/21 13:54:52;;;;;;;7.50;4.65;;;;;;;12.97;47.26;102063.16;10277827;28;98282;-78
2024/01/21 13:59:55;;;;;;;;;;;;;;;13.00;46.61;102065.78;10275788;28;98764;-79
2024/01/21 14:04:59;;;;;;;6.20;3.22;;;;;;;13.75;45.93;102060.53;10283343;28;98104;-79
2024/01/21 14:10:05;;;;;;;6.65;3.70;;;;;;;13.68;45.80;102059.81;10279924;28;97023;-76
2024/01/21 14:15:09;;;;;;;5.95;3.25;;;;;;;13.31;46.34;102057.13;10268216;28;97366;-78
2024/01/21 14:20:13;;;;;;;7.22;4.78;;;;;;;13.07;46.98;102049.72;10278219;28;96866;-81
2024/01/21 14:25:24;;;;;;;;;;;;;;;12.85;47.07;102050.22;10268131;28;97425;-77
2024/01/21 14:30:31;;;;;;;5.35;3.17;;;;;;;12.87;47.36;102046.66;10249494;28;97619;-79
2024/01/21 14:35:34;;;;;;;6.45;3.55;;;;;;;14.05;46.00;102038.66;10251701;28;96645;-79
2024/01/21 14:40:39;;;;;;;7.25;3.47;;;;;;;14.87;44.96;102034.63;10214190;28;97261;-79
2024/01/21 14:45:45;;;;;;;5.75;3.45;;;;;;;15.48;44.08;102026.56;10245952;28;96723;-79
2024/01/21 14:50:48;;;;;;;4.53;2.97;;;;;;;15.83;42.71;102032.50;10255296;28;96969;-78
2024/01/21 14:55:53;;;;;;;6.57;3.95;;;;;;;16.01;42.63;102036.31;10254744;28;96955;-79
2024/01/21 15:00:56;;;;;;;6.38;3.53;;;;;;;16.31;43.03;102023.75;10254961;28;97222;-79
2024/01/21 15:06:00;;;;;;;6.45;3.45;;;;;;;15.52;44.12;102034.41;10254528;28;96889;-78
2024/01/21 15:11:05;;;;;;;9.18;4.95;;;;;;;15.20;45.04;102033.63;10252758;28;96883;-78
2024/01/21 15:16:08;;;;;;;;;;;;;;;14.90;45.12;102031.88;10254302;28;96643;-78
2024/01/21 15:21:11;;;;;;;5.85;3.95;;;;;;;14.70;45.86;102025.38;10254763;28;96644;-78
2024/01/21 15:26:16;;;;;;;6.75;4.15;;;;;;;14.44;46.23;102029.63;10253152;28;96724;-78
2024/01/21 15:31:20;;;;;;;;;;;;;;;14.65;45.83;102031.69;10214119;28;96726;-78
2024/01/21 15:36:24;;;;;;;8.45;3.47;;;;;;;15.39;44.66;102018.91;10213892;28;97239;-79
2024/01/21 15:41:29;;;;;;;9.73;4.33;;;;;;;15.58;44.51;102034.19;10223343;28;97401;-79
2024/01/21 15:46:33;;;;;;;9.38;4.53;;;;;;;16.41;43.62;102034.03;10261164;22;97960;-78
2024/01/21 15:51:38;;;;;;;5.55;3.58;;;;;;;15.95;45.10;102031.22;10293851;28;96840;-79
2024/01/21 15:56:43;;;;;;;6.22;3.35;;;;;;;15.14;46.63;102026.72;10294287;28;97551;-79
2024/01/21 16:01:47;;;;;;;6.68;3.85;;;;;;;15.69;45.54;102041.81;10293237;28;97652;-79
2024/01/21 16:06:50;;;;;;;5.60;3.70;;;;;;;15.87;45.43;102036.75;10293953;28;97289;-79
2024/01/21 16:11:55;;;;;;;6.57;4.05;;;;;;;16.20;45.27;102034.78;10293720;28;96805;-79
2024/01/21 16:16:59;;;;;;;7.47;4.10;;;;;;;16.33;44.89;102032.53;10293379;28;96883;-79
2024/01/21 16:22:03;;;;;;;6.78;3.95;;;;;;;16.07;45.46;102051.16;10294312;28;97281;-79
2024/01/21 16:27:08;;;;;;;7.30;4.27;;;;;;;15.22;46.64;102050.34;10293637;28;98153;-79
2024/01/21 16:32:26;;;;;;;6.95;4.13;;;;;;;14.67;48.27;102073.16;10293595;28;96819;-79
2024/01/21 16:37:31;;;;;;;7.70;4.20;;;;;;;14.39;48.47;102068.63;10294195;28;96666;-79
2024/01/21 16:42:38;;;;;;;7.03;4.50;;;;;;;14.08;48.87;102073.84;10293367;28;96680;-79
2024/01/21 16:47:43;;;;;;;7.63;4.20;;;;;;;13.79;49.45;102075.44;10291943;28;96920;-79
2024/01/21 16:52:51;;;;;;;8.52;4.75;;;;;;;13.35;50.43;102076.44;10292224;28;97672;-78
2024/01/21 16:57:56;;;;;;;8.20;4.55;;;;;;;12.97;51.22;102081.66;10297700;28;97074;-78
2024/01/21 17:03:00;;;;;;;9.60;5.03;;;;;;;12.65;51.96;102086.72;10299262;28;96603;-78
2024/01/21 17:08:03;;;;;;;10.30;5.00;;;;;;;12.43;52.56;102096.75;10297587;28;96700;-78
2024/01/21 17:13:09;;;;;;;9.05;5.00;;;;;;;12.21;53.04;102098.91;10339015;28;96733;-79
2024/01/21 17:18:24;;;;;;;9.10;4.90;;;;;;;12.08;53.81;102097.38;10339209;28;96841;-78
2024/01/21 17:23:29;;;;;;;7.88;5.07;;;;;;;11.87;54.52;102095.09;10339541;28;97438;-78
2024/01/21 17:28:34;;;;;;;7.93;4.68;;;;;;;11.69;55.74;102103.28;10339409;28;96701;-78
2024/01/21 17:33:40;;;;;;;11.50;5.78;;;;;;;11.48;56.18;102107.97;10339307;28;96700;-78
2024/01/21 17:38:44;;;;;;;8.98;4.93;;;;;;;11.30;57.27;102123.13;10326884;28;96610;-78
2024/01/21 17:43:49;;;;;;;13.88;7.00;;;;;;;11.20;57.79;102126.78;10288845;28;97353;-79
2024/01/21 17:48:52;;;;;;;;;;;;;;;11.05;60.40;102148.03;10338729;28;96588;-78
2024/01/21 17:53:56;;;;;;;14.13;8.73;;;;;;;11.03;58.78;102135.75;10338858;28;96661;-78
2024/01/21 17:59:01;;;;;;;11.98;6.18;;;;;;;11.01;58.20;102146.31;10338339;28;96990;-78
2024/01/21 18:04:06;;;;;;;;;;;;;;;10.93;59.69;102144.66;10298250;28;97096;-78
2024/01/21 18:09:12;;;;;;;10.85;5.70;;;;;;;10.75;59.44;102147.50;10296516;28;96823;-79
2024/01/21 18:14:17;;;;;;;10.77;6.25;;;;;;;10.53;61.66;102159.97;10296425;28;96717;-79
2024/01/21 18:19:22;;;;;;;9.63;5.85;;;;;;;10.26;63.27;102157.59;10297675;28;97157;-79
2024/01/21 18:24:25;;;;;;;11.98;6.93;;;;;;;10.18;63.68;102152.38;10296560;28;96637;-79
2024/01/21 18:29:30;;;;;;;14.27;7.40;;;;;;;10.15;63.68;102148.91;10295932;28;96826;-79
2024/01/21 18:34:40;;;;;;;11.05;5.88;;;;;;;10.10;64.18;102162.09;10307287;28;96743;-79
2024/01/21 18:39:43;;;;;;;;;;;;;;;10.02;66.99;102168.31;10258338;28;96619;-78
2024/01/21 18:44:48;;;;;;;10.10;6.13;;;;;;;9.83;66.92;102171.94;10295559;28;97366;-79
2024/01/21 18:49:51;;;;;;;13.02;6.60;;;;;;;9.74;67.39;102178.13;10295809;28;96795;-79
2024/01/21 18:54:56;;;;;;;11.75;6.50;;;;;;;9.87;65.59;102173.63;10334190;28;96629;-78
2024/01/21 19:00:01;;;;;;;11.18;6.95;;;;;;;9.88;64.15;102170.16;10336477;28;96556;-78
2024/01/21 19:05:06;;;;;;;12.05;6.82;;;;;;;9.65;66.40;102174.66;10336551;28;96574;-79
2024/01/21 19:10:11;;;;;;;13.60;7.75;;;;;;;9.57;66.76;102179.94;10311996;28;96569;-79
2024/01/21 19:15:16;;;;;;;13.75;7.65;;;;;;;9.44;67.62;102183.50;10294861;28;96633;-79
2024/01/21 19:20:19;;;;;;;12.35;6.68;;;;;;;9.31;68.91;102175.69;10293628;28;97328;-79
2024/01/21 19:25:22;;;;;;;12.00;7.15;;;;;;;9.18;71.42;102179.19;10294163;28;97245;-79
2024/01/21 19:30:27;;;;;;;13.63;7.93;;;;;;;9.09;70.85;102183.59;10294694;28;97669;-78
2024/01/21 19:35:32;;;;;;;13.10;7.47;;;;;;;9.00;71.89;102194.13;10294440;28;96614;-78
2024/01/21 19:40:38;;;;;;;12.00;7.27;;;;;;;9.02;71.92;102202.88;10284756;28;96725;-78
2024/01/21 19:45:44;;;;;;;14.77;10.00;;;;;;;9.03;70.05;102202.00;10291462;28;97265;-78
2024/01/21 19:50:49;;;;;;;13.23;7.55;;;;;;;9.04;70.12;102211.63;10293287;28;96735;-79
2024/01/21 19:55:52;;;;;;;12.70;7.82;;;;;;;8.85;70.93;102211.66;10293712;28;96606;-78
2024/01/21 20:00:58;;;;;;;16.23;8.15;;;;;;;8.99;69.90;102229.16;10295738;28;96633;-78
2024/01/21 20:06:02;;;;;;;17.20;8.05;;;;;;;8.94;71.07;102236.16;10293683;28;97106;-78
2024/01/21 20:11:07;;;;;;;14.85;7.70;;;;;;;8.98;70.14;102243.13;10266404;28;97474;-78
2024/01/21 20:16:14;;;;;;;13.10;7.93;;;;;;;8.96;70.05;102246.66;10269159;28;96806;-78
2024/01/21 20:21:20;;;;;;;14.10;7.47;;;;;;;8.80;71.58;102251.06;10334097;28;96635;-78
2024/01/21 20:26:23;;;;;;;14.88;7.63;;;;;;;8.53;73.62;102261.53;10333816;28;96838;-79
2024/01/21 20:31:28;;;;;;;14.52;8.40;;;;;;;8.39;75.10;102265.03;10317555;28;97222;-79
2024/01/21 20:36:32;;;;;;;15.10;8.32;;;;;;;8.36;76.06;102260.63;10300528;28;96845;-78
2024/01/21 20:41:36;;;;;;;14.30;8.05;;;;;;;8.29;76.65;102258.88;10299660;28;96704;-79
2024/01/21 20:46:40;;;;;;;15.55;8.90;;;;;;;8.44;75.84;102261.53;10299263;28;96850;-79
2024/01/21 20:51:44;;;;;;;13.05;8.20;;;;;;;8.42;74.99;102239.69;10300632;28;97813;-78
2024/01/21 20:56:48;;;;;;;12.73;7.63;;;;;;;8.44;75.78;102224.81;10299857;28;96721;-79
2024/01/21 21:01:53;;;;;;;13.38;8.63;;;;;;;8.40;76.65;102216.94;10299362;28;96711;-78
2024/01/21 21:06:56;;;;;;;13.70;8.47;;;;;;;8.60;75.29;102217.81;10298730;28;96697;-79
2024/01/21 21:12:00;;;;;;;13.73;8.77;;;;;;;8.67;75.04;102228.28;10298931;28;96714;-79
2024/01/21 21:17:07;;;;;;;12.68;7.50;;;;;;;8.55;75.43;102232.69;10298401;28;97229;-78
2024/01/21 21:22:12;;;;;;;17.27;8.85;;;;;;;8.34;77.99;102228.28;10298870;28;96665;-78
2024/01/21 21:27:16;;;;;;;18.52;9.98;;;;;;;8.25;77.52;102225.69;10298992;28;96631;-79
2024/01/21 21:32:21;;;;;;;21.38;10.40;;;;;;;8.23;76.38;102237.91;10298139;28;97054;-78
2024/01/21 21:37:25;;;;;;;17.95;9.32;;;;;;;8.09;78.53;102246.59;10297346;28;97113;-78
2024/01/21 21:42:29;;;;;;;17.20;8.00;;;;;;;8.09;77.40;102241.38;10298276;28;97525;-79
2024/01/21 21:47:33;;;;;;;13.30;8.57;;;;;;;8.18;76.16;102244.00;10297223;28;96647;-78
2024/01/21 21:52:37;;;;;;;14.88;7.95;;;;;;;8.27;76.12;102244.03;10297936;28;96610;-79
2024/01/21 21:57:41;;;;;;;14.68;7.10;;;;;;;8.27;75.41;102250.16;10297344;28;97879;-78
2024/01/21 22:02:46;;;;;;;13.73;8.13;;;;;;;8.27;74.97;102250.16;10297267;28;97547;-79
2024/01/21 22:07:50;;;;;;;14.48;8.50;;;;;;;8.19;75.43;102257.13;10297100;28;96677;-79
2024/01/21 22:12:54;;;;;;;13.00;8.07;;;;;;;7.91;76.97;102242.19;10297061;28;96869;-79
2024/01/21 22:17:59;;;;;;;14.30;8.25;;;;;;;7.72;79.33;102253.47;10328015;28;96952;-79
2024/01/21 22:23:02;;;;;;;16.13;8.80;;;;;;;7.61;80.32;102256.09;10337782;28;97547;-79
2024/01/21 22:28:06;;;;;;;13.38;8.70;;;;;;;7.50;81.14;102268.25;10310180;28;96686;-78
2024/01/21 22:33:11;;;;;;;17.95;9.10;;;;;;;7.46;81.28;102274.31;10313420;28;97290;-79
2024/01/21 22:38:14;;;;;;;14.93;8.90;;;;;;;7.53;80.77;102270.88;10337181;28;96695;-78
2024/01/21 22:43:18;;;;;;;17.58;9.35;;;;;;;7.51;79.57;102282.22;10305604;28;97213;-78
2024/01/21 22:48:23;;;;;;;17.17;9.30;;;;;;;7.43;82.50;102290.03;10294918;28;96832;-78
2024/01/21 22:53:26;;;;;;;15.40;8.55;;;;;;;7.31;83.52;102278.59;10295544;28;97206;-79
2024/01/21 22:58:30;;;;;;;15.13;8.63;;;;;;;7.31;82.63;102281.22;10295420;28;96714;-78
2024/01/21 23:03:34;;;;;;;18.50;9.43;;;;;;;7.34;82.77;102284.75;10295476;28;96668;-78
2024/01/21 23:08:38;;;;;;;15.73;8.40;;;;;;;7.33;82.44;102282.13;10293734;28;96765;-79
2024/01/21 23:13:42;;;;;;;16.55;9.02;;;;;;;7.32;83.33;102277.75;10254604;28;97278;-78
2024/01/21 23:18:47;;;;;;;17.58;9.05;;;;;;;7.35;83.76;102273.41;10254173;28;96740;-78
2024/01/21 23:23:50;;;;;;;15.25;8.95;;;;;;;7.27;82.97;102279.47;10270345;28;96686;-78
2024/01/21 23:28:54;;;;;;;14.55;8.77;;;;;;;7.24;85.02;102275.09;10294652;28;96608;-78
2024/01/21 23:33:58;;;;;;;13.70;8.40;;;;;;;7.25;84.73;102281.19;10294215;28;97428;-78